Time;durP1;ratioP1;P1;durP2;ratioP2;P2;SDS_P1;SDS_P2;PMS_P1;PMS_P2;Temp;Humidity;BMP_temperature;BMP_pressure;BME280_temperature;BME280_humidity;BME280_pressure;Samples;Min_cycle;Max_cycle;Signal;HPM_P1;HPM_P2
2024/03/08 00:00:29;;;;;;;10.90;9.80;;;;;;;;;;6274673;22;20172;-90
2024/03/08 00:02:56;;;;;;;11.30;10.15;;;;;;;;;;6274559;22;20157;-90
2024/03/08 00:05:24;;;;;;;13.00;10.85;;;;;;;;;;6274774;22;20176;-90
2024/03/08 00:07:52;;;;;;;13.18;11.13;;;;;;;;;;6274469;22;20174;-90
2024/03/08 00:10:21;;;;;;;10.20;9.20;;;;;;;;;;6274671;22;20153;-90
2024/03/08 00:12:51;;;;;;;12.68;10.43;;;;;;;;;;6274733;22;20188;-89
2024/03/08 00:15:19;;;;;;;12.63;11.40;;;;;;;;;;6274827;22;20216;-90
2024/03/08 00:17:46;;;;;;;14.30;11.77;;;;;;;;;;6274446;22;20181;-91
2024/03/08 00:20:14;;;;;;;17.45;12.80;;;;;;;;;;6274614;22;20157;-91
2024/03/08 00:22:41;;;;;;;13.32;10.93;;;;;;;;;;6274520;22;20172;-91
2024/03/08 00:25:09;;;;;;;11.95;10.23;;;;;;;;;;6274620;22;20189;-90
2024/03/08 00:27:38;;;;;;;11.00;9.77;;;;;;;;;;6274262;22;20164;-90
2024/03/08 00:30:08;;;;;;;10.80;9.40;;;;;;;;;;6274356;22;20169;-90
2024/03/08 00:32:36;;;;;;;11.63;8.85;;;;;;;;;;6274349;22;20149;-90
2024/03/08 00:35:07;;;;;;;8.27;7.38;;;;;;;;;;6274250;22;20241;-91
2024/03/08 00:37:35;;;;;;;10.10;8.30;;;;;;;;;;6273599;22;20180;-90
2024/03/08 00:40:03;;;;;;;8.82;7.93;;;;;;;;;;6274376;22;20161;-91
2024/03/08 00:42:30;;;;;;;9.70;8.27;;;;;;;;;;6274096;22;20163;-91
2024/03/08 00:44:58;;;;;;;11.38;10.20;;;;;;;;;;6274250;22;20177;-92
2024/03/08 00:47:27;;;;;;;13.93;10.93;;;;;;;;;;6273995;22;20153;-91
2024/03/08 00:49:56;;;;;;;13.10;10.07;;;;;;;;;;6274097;22;20153;-91
2024/03/08 00:52:24;;;;;;;10.13;9.13;;;;;;;;;;6274509;22;20141;-92
2024/03/08 00:54:52;;;;;;;8.27;7.47;;;;;;;;;;6274148;22;20181;-90
2024/03/08 00:57:21;;;;;;;9.00;8.10;;;;;;;;;;6273900;22;20161;-91
2024/03/08 00:59:49;;;;;;;8.60;7.70;;;;;;;;;;6274381;22;20172;-91
2024/03/08 01:02:18;;;;;;;9.40;8.43;;;;;;;;;;6274317;22;20192;-90
2024/03/08 01:04:48;;;;;;;9.13;8.23;;;;;;;;;;6274218;22;20168;-92
2024/03/08 01:07:15;;;;;;;8.68;7.78;;;;;;;;;;6274037;22;20146;-90
2024/03/08 01:09:43;;;;;;;11.10;8.52;;;;;;;;;;6274146;22;20165;-90
2024/03/08 01:12:10;;;;;;;8.05;7.20;;;;;;;;;;6274285;22;20173;-91
2024/03/08 01:14:38;;;;;;;8.27;7.45;;;;;;;;;;6274190;22;20180;-92
2024/03/08 01:17:06;;;;;;;8.20;7.32;;;;;;;;;;6273817;22;20172;-91
2024/03/08 01:19:34;;;;;;;9.10;8.15;;;;;;;;;;6273453;22;20199;-90
2024/03/08 01:22:03;;;;;;;9.27;8.07;;;;;;;;;;6273705;22;20161;-91
2024/03/08 01:24:31;;;;;;;8.45;7.65;;;;;;;;;;6273630;22;20203;-92
2024/03/08 01:26:59;;;;;;;8.57;7.72;;;;;;;;;;6273932;22;20371;-91
2024/03/08 01:29:27;;;;;;;8.82;7.97;;;;;;;;;;6273389;22;20165;-91
2024/03/08 01:31:56;;;;;;;8.45;7.65;;;;;;;;;;6273365;22;20179;-91
2024/03/08 01:34:23;;;;;;;8.10;7.28;;;;;;;;;;6273103;22;20188;-91
2024/03/08 01:36:51;;;;;;;8.23;7.32;;;;;;;;;;6273453;22;20175;-91
2024/03/08 01:39:21;;;;;;;7.55;6.85;;;;;;;;;;6272175;22;20203;-92
2024/03/08 01:41:49;;;;;;;7.75;7.00;;;;;;;;;;6272213;22;20165;-92
2024/03/08 01:44:17;;;;;;;9.40;8.43;;;;;;;;;;6273415;22;20192;-90
2024/03/08 01:46:45;;;;;;;9.40;7.32;;;;;;;;;;6273632;22;20169;-91
2024/03/08 01:49:14;;;;;;;12.35;11.05;;;;;;;;;;6272975;22;20153;-88
2024/03/08 01:51:42;;;;;;;10.05;8.93;;;;;;;;;;6273244;22;20180;-91
2024/03/08 01:54:10;;;;;;;12.82;11.48;;;;;;;;;;6273012;22;20164;-91
2024/03/08 01:56:40;;;;;;;9.93;8.43;;;;;;;;;;6273235;22;20169;-93
2024/03/08 01:59:08;;;;;;;9.85;8.40;;;;;;;;;;6272544;22;20185;-92
2024/03/08 02:01:36;;;;;;;9.13;7.47;;;;;;;;;;6273210;22;20157;-92
2024/03/08 02:04:05;;;;;;;10.40;9.32;;;;;;;;;;6272772;22;20169;-91
2024/03/08 02:06:33;;;;;;;12.02;9.57;;;;;;;;;;6273010;22;20165;-91
2024/03/08 02:09:05;;;;;;;11.20;10.07;;;;;;;;;;6271796;22;20169;-90
2024/03/08 02:11:33;;;;;;;10.85;9.20;;;;;;;;;;6272682;22;20200;-91
2024/03/08 02:14:02;;;;;;;8.30;7.50;;;;;;;;;;6271981;22;20176;-91
2024/03/08 02:16:29;;;;;;;7.82;7.10;;;;;;;;;;6272524;22;20169;-92
2024/03/08 02:18:57;;;;;;;8.73;7.78;;;;;;;;;;6272845;22;20208;-90
2024/03/08 02:21:26;;;;;;;10.00;9.05;;;;;;;;;;6273396;22;20165;-90
2024/03/08 02:23:54;;;;;;;11.75;10.20;;;;;;;;;;6273485;22;20149;-91
2024/03/08 02:26:22;;;;;;;9.57;8.48;;;;;;;;;;6273153;22;20157;-91
2024/03/08 02:28:50;;;;;;;10.10;8.82;;;;;;;;;;6272927;22;20153;-90
2024/03/08 02:31:17;;;;;;;10.88;9.82;;;;;;;;;;6272206;22;20169;-90
2024/03/08 02:33:47;;;;;;;9.85;8.85;;;;;;;;;;6271462;22;20176;-90
2024/03/08 02:36:16;;;;;;;14.55;10.43;;;;;;;;;;6271891;22;20211;-90
2024/03/08 02:38:45;;;;;;;11.40;9.35;;;;;;;;;;6271188;22;20193;-91
2024/03/08 02:41:12;;;;;;;13.32;11.23;;;;;;;;;;6270674;22;20161;-91
2024/03/08 02:43:40;;;;;;;12.63;11.32;;;;;;;;;;6272447;22;20157;-90
2024/03/08 02:46:07;;;;;;;12.18;10.93;;;;;;;;;;6272290;22;20200;-92
2024/03/08 02:48:35;;;;;;;11.63;9.77;;;;;;;;;;6272082;22;20173;-92
2024/03/08 02:51:03;;;;;;;14.38;10.68;;;;;;;;;;6272615;22;20176;-91
2024/03/08 02:53:30;;;;;;;10.15;9.15;;;;;;;;;;6273368;22;20195;-92
2024/03/08 02:55:59;;;;;;;12.20;10.38;;;;;;;;;;6274951;22;20180;-91
2024/03/08 02:58:27;;;;;;;12.18;9.88;;;;;;;;;;6275061;22;20173;-89
2024/03/08 03:00:57;;;;;;;10.65;9.43;;;;;;;;;;6274140;22;20165;-91
2024/03/08 03:03:24;;;;;;;9.65;8.65;;;;;;;;;;6273456;23;20199;-91
2024/03/08 03:05:55;;;;;;;13.13;11.00;;;;;;;;;;6271774;23;20177;-91
2024/03/08 03:08:23;;;;;;;12.88;10.60;;;;;;;;;;6271364;23;20171;-92
2024/03/08 03:10:51;;;;;;;13.77;11.32;;;;;;;;;;6272130;23;20164;-92
2024/03/08 03:13:20;;;;;;;15.75;13.13;;;;;;;;;;6271488;23;20169;-91
2024/03/08 03:15:48;;;;;;;12.00;10.55;;;;;;;;;;6270342;23;20220;-91
2024/03/08 03:18:15;;;;;;;16.15;11.90;;;;;;;;;;6270254;23;20160;-91
2024/03/08 03:20:44;;;;;;;14.75;13.15;;;;;;;;;;6270600;23;20208;-92
2024/03/08 03:23:14;;;;;;;14.25;11.48;;;;;;;;;;6269902;23;20169;-90
2024/03/08 03:25:41;;;;;;;10.95;9.85;;;;;;;;;;6269840;23;20193;-91
2024/03/08 03:28:10;;;;;;;15.10;13.50;;;;;;;;;;6269452;23;20173;-92
2024/03/08 03:30:40;;;;;;;15.93;12.25;;;;;;;;;;6269534;23;20169;-91
2024/03/08 03:33:07;;;;;;;16.75;14.18;;;;;;;;;;6270942;23;20172;-91
2024/03/08 03:35:35;;;;;;;17.63;14.35;;;;;;;;;;6270640;23;20200;-92
2024/03/08 03:38:06;;;;;;;16.90;14.32;;;;;;;;;;6269454;23;20193;-90
2024/03/08 03:40:34;;;;;;;17.77;13.57;;;;;;;;;;6267818;23;20219;-91
2024/03/08 03:43:03;;;;;;;25.02;13.15;;;;;;;;;;6268387;23;20164;-91
2024/03/08 03:45:34;;;;;;;18.52;15.32;;;;;;;;;;6269144;23;20204;-91
2024/03/08 03:48:04;;;;;;;14.35;11.95;;;;;;;;;;6267663;23;20515;-91
2024/03/08 03:50:34;;;;;;;18.17;14.77;;;;;;;;;;6269280;23;20168;-91
2024/03/08 03:53:01;;;;;;;13.10;11.30;;;;;;;;;;6270443;23;20173;-91
2024/03/08 03:55:29;;;;;;;11.70;9.88;;;;;;;;;;6267427;23;20200;-91
2024/03/08 03:57:58;;;;;;;16.58;11.63;;;;;;;;;;6266288;23;20174;-91
2024/03/08 04:00:26;;;;;;;14.70;12.60;;;;;;;;;;6265272;23;20248;-90
2024/03/08 04:02:54;;;;;;;13.13;11.50;;;;;;;;;;6265421;23;20173;-92
2024/03/08 04:05:23;;;;;;;14.75;11.40;;;;;;;;;;6265629;23;20193;-91
2024/03/08 04:07:51;;;;;;;11.50;9.48;;;;;;;;;;6264233;23;20195;-89
2024/03/08 04:10:18;;;;;;;12.55;10.00;;;;;;;;;;6268078;23;20173;-92
2024/03/08 04:12:47;;;;;;;10.18;9.18;;;;;;;;;;6269845;23;20157;-90
2024/03/08 04:15:15;;;;;;;11.13;9.90;;;;;;;;;;6274263;22;20207;-92
2024/03/08 04:17:45;;;;;;;10.55;9.38;;;;;;;;;;6273323;22;20169;-90
2024/03/08 04:20:14;;;;;;;10.13;9.13;;;;;;;;;;6265385;23;20200;-92
2024/03/08 04:22:44;;;;;;;10.02;8.90;;;;;;;;;;6264941;23;20176;-92
2024/03/08 04:25:11;;;;;;;13.95;11.57;;;;;;;;;;6265316;23;20177;-92
2024/03/08 04:27:40;;;;;;;15.38;12.18;;;;;;;;;;6271955;22;20173;-92
2024/03/08 04:30:09;;;;;;;18.60;13.23;;;;;;;;;;6263392;23;20176;-92
2024/03/08 04:32:37;;;;;;;16.45;13.73;;;;;;;;;;6262595;23;20169;-92
2024/03/08 04:35:06;;;;;;;17.23;14.50;;;;;;;;;;6262518;23;20218;-92
2024/03/08 04:37:34;;;;;;;15.40;12.25;;;;;;;;;;6262794;23;20259;-91
2024/03/08 04:40:03;;;;;;;17.33;14.40;;;;;;;;;;6264197;23;20272;-92
2024/03/08 04:42:32;;;;;;;18.15;14.55;;;;;;;;;;6263573;23;20185;-91
2024/03/08 04:45:00;;;;;;;18.10;13.10;;;;;;;;;;6262812;23;20189;-92
2024/03/08 04:47:27;;;;;;;18.42;15.68;;;;;;;;;;6262604;23;20173;-91
2024/03/08 04:49:56;;;;;;;17.45;13.20;;;;;;;;;;6262079;23;20192;-92
2024/03/08 04:52:23;;;;;;;16.08;13.40;;;;;;;;;;6262437;23;20181;-92
2024/03/08 04:54:51;;;;;;;13.57;11.68;;;;;;;;;;6263672;23;20193;-92
2024/03/08 04:57:20;;;;;;;13.68;11.40;;;;;;;;;;6259707;23;20176;-91
2024/03/08 04:59:48;;;;;;;15.07;11.57;;;;;;;;;;6259526;23;20175;-91
2024/03/08 05:02:15;;;;;;;13.35;11.23;;;;;;;;;;6259529;23;20223;-93
2024/03/08 05:04:43;;;;;;;11.65;10.48;;;;;;;;;;6260566;23;20275;-91
2024/03/08 05:07:10;;;;;;;11.55;10.00;;;;;;;;;;6258770;23;20176;-91
2024/03/08 05:09:40;;;;;;;12.40;11.05;;;;;;;;;;6259294;23;20189;-91
2024/03/08 05:12:08;;;;;;;14.00;10.65;;;;;;;;;;6258982;23;20456;-92
2024/03/08 05:14:37;;;;;;;12.95;11.48;;;;;;;;;;6259301;23;20203;-92
2024/03/08 05:17:06;;;;;;;12.43;10.43;;;;;;;;;;6259379;23;20184;-92
2024/03/08 05:19:34;;;;;;;11.02;9.82;;;;;;;;;;6258370;23;20165;-92
2024/03/08 05:22:01;;;;;;;19.80;13.90;;;;;;;;;;6258174;23;20200;-92
2024/03/08 05:24:29;;;;;;;19.10;12.70;;;;;;;;;;6259410;23;20193;-92
2024/03/08 05:26:57;;;;;;;15.57;12.48;;;;;;;;;;6261996;23;20251;-92
2024/03/08 05:29:24;;;;;;;16.85;14.15;;;;;;;;;;6262924;23;20173;-91
2024/03/08 05:31:54;;;;;;;13.45;10.43;;;;;;;;;;6262458;23;20172;-92
2024/03/08 05:34:22;;;;;;;14.52;12.32;;;;;;;;;;6258237;23;20247;-92
2024/03/08 05:36:50;;;;;;;16.67;12.77;;;;;;;;;;6256264;23;20192;-91
2024/03/08 05:39:18;;;;;;;16.25;12.73;;;;;;;;;;6258626;23;20207;-92
2024/03/08 05:41:46;;;;;;;13.38;11.73;;;;;;;;;;6258256;23;20200;-91
2024/03/08 05:44:14;;;;;;;16.70;14.15;;;;;;;;;;6257860;23;20165;-92
2024/03/08 05:46:42;;;;;;;17.45;13.30;;;;;;;;;;6258274;23;20172;-92
2024/03/08 05:49:11;;;;;;;15.25;13.48;;;;;;;;;;6256894;23;20173;-92
2024/03/08 05:51:40;;;;;;;12.82;11.50;;;;;;;;;;6257322;23;20184;-91
2024/03/08 05:54:10;;;;;;;16.77;13.95;;;;;;;;;;6255262;23;20173;-92
2024/03/08 05:56:38;;;;;;;15.70;11.82;;;;;;;;;;6263291;23;20172;-91
2024/03/08 05:59:05;;;;;;;17.80;14.95;;;;;;;;;;6259231;23;20185;-92
2024/03/08 06:33:20;;;;;;;14.48;12.52;;;;;;;;;;6213273;22;20188;-92
2024/03/08 06:35:48;;;;;;;13.13;10.43;;;;;;;;;;6303972;22;20183;-91
2024/03/08 06:38:16;;;;;;;11.52;10.30;;;;;;;;;;6302815;22;20176;-91
2024/03/08 06:40:47;;;;;;;12.45;11.13;;;;;;;;;;6303489;22;20283;-93
2024/03/08 06:43:16;;;;;;;12.38;10.38;;;;;;;;;;6303709;22;20163;-93
2024/03/08 06:45:48;;;;;;;11.15;9.90;;;;;;;;;;6303749;22;20203;-91
2024/03/08 06:48:24;;;;;;;11.98;10.75;;;;;;;;;;6303738;22;20186;-91
2024/03/08 06:53:46;;;;;;;11.98;10.73;;;;;;;;;;6245705;22;20190;-91
2024/03/08 06:56:38;;;;;;;9.82;8.50;;;;;;;;;;6303741;22;20220;-90
2024/03/08 06:59:10;;;;;;;11.60;10.00;;;;;;;;;;6301885;22;20212;-90
2024/03/08 07:02:00;;;;;;;12.10;10.82;;;;;;;;;;6303575;22;20199;-90
2024/03/08 07:10:47;;;;;;;13.82;10.25;;;;;;;;;;6297224;22;20241;-92
2024/03/08 07:13:16;;;;;;;15.05;13.35;;;;;;;;;;6309020;22;20160;-92
2024/03/08 07:15:45;;;;;;;15.68;13.45;;;;;;;;;;6301480;22;20162;-92
2024/03/08 07:18:14;;;;;;;13.32;11.90;;;;;;;;;;6299550;22;20215;-93
2024/03/08 07:20:43;;;;;;;14.43;11.77;;;;;;;;;;6282645;22;20212;-88
2024/03/08 07:23:45;;;;;;;14.65;11.85;;;;;;;;;;6276243;22;20176;-90
2024/03/08 07:26:01;;;;;;;19.00;13.60;;;;;;;;;;6276381;22;20180;-91
2024/03/08 07:28:36;;;;;;;16.58;12.63;;;;;;;;;;6276100;22;20172;-90
2024/03/08 07:46:05;;;;;;;17.38;15.35;;;;;;;;;;6241263;22;20230;-89
2024/03/08 07:49:34;;;;;;;18.92;14.98;;;;;;;;;;6277444;22;20251;-90
2024/03/08 08:01:38;;;;;;;19.58;15.30;;;;;;;;;;6269474;22;20206;-89
2024/03/08 08:04:12;;;;;;;20.33;16.75;;;;;;;;;;6278336;22;20172;-92
2024/03/08 08:37:51;;;;;;;20.45;16.42;;;;;;;;;;6255568;23;20189;-90
2024/03/08 08:40:19;;;;;;;19.92;15.95;;;;;;;;;;6262421;23;20184;-91
2024/03/08 08:42:46;;;;;;;21.33;16.80;;;;;;;;;;6261931;23;20201;-90
2024/03/08 08:45:16;;;;;;;22.08;17.17;;;;;;;;;;6270259;22;20184;-89
2024/03/08 08:47:44;;;;;;;21.88;16.15;;;;;;;;;;6267895;22;20200;-90
2024/03/08 08:50:12;;;;;;;15.52;13.43;;;;;;;;;;6248700;22;20200;-89
2024/03/08 08:52:40;;;;;;;17.45;14.18;;;;;;;;;;6246121;22;20248;-91
2024/03/08 08:55:14;;;;;;;18.17;14.07;;;;;;;;;;6245839;22;20569;-89
2024/03/08 08:57:41;;;;;;;19.02;14.88;;;;;;;;;;6247141;23;20219;-91
2024/03/08 09:00:14;;;;;;;19.02;15.38;;;;;;;;;;6255041;23;20732;-89
2024/03/08 09:02:42;;;;;;;19.08;14.73;;;;;;;;;;6245716;23;20189;-90
2024/03/08 09:05:09;;;;;;;16.95;13.32;;;;;;;;;;6246068;23;20219;-89
2024/03/08 09:07:37;;;;;;;16.92;14.18;;;;;;;;;;6244813;22;20169;-90
2024/03/08 09:10:06;;;;;;;17.88;15.98;;;;;;;;;;6256474;22;20732;-89
2024/03/08 09:12:35;;;;;;;16.98;13.55;;;;;;;;;;6246062;22;20174;-90
2024/03/08 09:15:02;;;;;;;16.80;13.45;;;;;;;;;;6246127;22;20172;-89
2024/03/08 09:17:30;;;;;;;17.98;14.88;;;;;;;;;;6245812;22;20176;-91
2024/03/08 09:19:57;;;;;;;16.88;14.20;;;;;;;;;;6245854;22;20189;-90
2024/03/08 09:22:40;;;;;;;17.70;15.55;;;;;;;;;;6254229;22;20236;-88
2024/03/08 09:26:34;;;;;;;17.45;13.75;;;;;;;;;;6273511;22;20169;-91
2024/03/08 09:29:41;;;;;;;15.38;13.75;;;;;;;;;;6100893;23;20179;-92
2024/03/08 09:33:02;;;;;;;15.95;14.20;;;;;;;;;;6256566;22;20230;-90
2024/03/08 09:40:27;;;;;;;20.35;15.75;;;;;;;;;;6123670;23;20210;-92
2024/03/08 09:42:57;;;;;;;12.27;10.75;;;;;;;;;;6137056;23;20200;-92
2024/03/08 09:45:29;;;;;;;16.52;14.40;;;;;;;;;;6148929;23;20176;-93
2024/03/08 09:55:34;;;;;;;14.50;11.15;;;;;;;;;;6244402;22;20169;-92
2024/03/08 09:59:14;;;;;;;14.40;11.27;;;;;;;;;;6245684;22;20543;-91
2024/03/08 10:02:04;;;;;;;13.63;11.98;;;;;;;;;;6243510;22;20192;-91
2024/03/08 10:04:32;;;;;;;12.73;11.43;;;;;;;;;;6245536;23;20244;-91
2024/03/08 10:07:01;;;;;;;14.38;12.68;;;;;;;;;;6251024;22;20516;-91
2024/03/08 10:09:29;;;;;;;12.73;11.48;;;;;;;;;;6245457;22;20172;-91
2024/03/08 10:11:58;;;;;;;18.83;11.35;;;;;;;;;;6245199;23;20244;-91
2024/03/08 10:14:27;;;;;;;14.48;12.80;;;;;;;;;;6245400;22;20172;-91
2024/03/08 10:16:59;;;;;;;11.65;10.48;;;;;;;;;;6244830;22;20223;-90
2024/03/08 10:19:27;;;;;;;12.95;11.15;;;;;;;;;;6245014;23;20240;-90
2024/03/08 10:21:56;;;;;;;14.02;11.10;;;;;;;;;;6245131;22;20223;-91
2024/03/08 10:24:24;;;;;;;12.80;10.35;;;;;;;;;;6244801;23;20678;-90
2024/03/08 10:27:04;;;;;;;13.82;12.05;;;;;;;;;;6245234;23;20172;-90
2024/03/08 10:29:43;;;;;;;10.63;9.45;;;;;;;;;;6245172;23;20176;-91
2024/03/08 10:32:26;;;;;;;11.88;10.65;;;;;;;;;;6245461;23;20604;-91
2024/03/08 10:35:01;;;;;;;11.68;10.45;;;;;;;;;;6245195;23;20631;-91
2024/03/08 10:37:45;;;;;;;16.67;12.00;;;;;;;;;;6245226;23;20180;-91
2024/03/08 10:40:37;;;;;;;13.48;11.10;;;;;;;;;;6245428;23;20220;-92
2024/03/08 10:43:29;;;;;;;13.05;10.93;;;;;;;;;;6245521;23;20193;-90
2024/03/08 10:47:02;;;;;;;13.55;11.07;;;;;;;;;;6245495;23;20168;-91
2024/03/08 10:49:46;;;;;;;12.20;10.88;;;;;;;;;;6245501;23;20173;-91
2024/03/08 10:52:31;;;;;;;15.85;13.32;;;;;;;;;;6245582;22;20181;-91
2024/03/08 10:58:12;;;;;;;13.20;11.10;;;;;;;;;;6243001;22;20175;-91
2024/03/08 11:00:41;;;;;;;13.43;12.02;;;;;;;;;;6245020;23;20195;-90
2024/03/08 11:03:56;;;;;;;13.40;11.43;;;;;;;;;;6245202;22;20196;-90
2024/03/08 11:06:45;;;;;;;15.20;12.52;;;;;;;;;;6245335;23;20150;-90
2024/03/08 11:09:30;;;;;;;16.02;13.35;;;;;;;;;;6244928;23;20177;-89
2024/03/08 11:12:29;;;;;;;16.05;12.65;;;;;;;;;;6245269;23;20165;-91
2024/03/08 11:15:36;;;;;;;14.85;12.07;;;;;;;;;;6244863;23;20161;-90
2024/03/08 11:18:12;;;;;;;13.45;12.05;;;;;;;;;;6243858;22;20829;-91
2024/03/08 11:20:40;;;;;;;11.70;10.50;;;;;;;;;;6251433;23;20244;-91
2024/03/08 11:23:46;;;;;;;13.77;11.15;;;;;;;;;;6254840;22;20272;-93
2024/03/08 11:26:22;;;;;;;13.15;11.70;;;;;;;;;;6257368;22;20172;-91
2024/03/08 11:29:43;;;;;;;15.77;12.70;;;;;;;;;;6246723;23;20639;-90
2024/03/08 11:32:18;;;;;;;14.77;13.18;;;;;;;;;;6246531;23;20173;-90
2024/03/08 11:34:57;;;;;;;13.38;11.95;;;;;;;;;;6246945;23;20159;-91
2024/03/08 11:37:25;;;;;;;15.18;13.52;;;;;;;;;;6246433;23;20169;-90
2024/03/08 11:39:58;;;;;;;15.38;13.50;;;;;;;;;;6246981;22;20272;-90
2024/03/08 11:42:27;;;;;;;14.98;11.82;;;;;;;;;;6257732;22;20185;-91
2024/03/08 11:45:11;;;;;;;14.35;12.73;;;;;;;;;;6247688;22;20565;-91
2024/03/08 11:47:52;;;;;;;17.05;12.88;;;;;;;;;;6247172;23;20554;-90
2024/03/08 11:50:30;;;;;;;13.18;11.77;;;;;;;;;;6258701;22;20204;-89
2024/03/08 11:53:08;;;;;;;17.50;13.65;;;;;;;;;;6274360;22;20169;-90
2024/03/08 11:55:42;;;;;;;14.90;13.35;;;;;;;;;;6259839;22;20169;-89
2024/03/08 11:58:11;;;;;;;17.52;13.48;;;;;;;;;;6248134;23;20499;-88
2024/03/08 12:00:46;;;;;;;16.02;12.70;;;;;;;;;;6247457;22;20195;-89
2024/03/08 12:03:36;;;;;;;14.98;12.75;;;;;;;;;;6246858;22;20513;-90
2024/03/08 12:06:20;;;;;;;16.48;13.57;;;;;;;;;;6247181;23;20597;-90
2024/03/08 12:17:07;;;;;;;16.20;13.90;;;;;;;;;;6036532;23;20177;-89
2024/03/08 12:20:00;;;;;;;14.00;11.60;;;;;;;;;;5980532;24;20175;-90
2024/03/08 12:22:28;;;;;;;15.65;13.27;;;;;;;;;;6040575;23;20178;-90
2024/03/08 12:25:06;;;;;;;14.68;13.07;;;;;;;;;;6237327;22;20224;-90
2024/03/08 12:27:34;;;;;;;17.23;14.13;;;;;;;;;;6245286;23;20632;-90
2024/03/08 12:30:19;;;;;;;18.70;12.73;;;;;;;;;;6245634;23;20656;-90
2024/03/08 12:32:54;;;;;;;17.48;13.38;;;;;;;;;;6246053;23;20191;-90
2024/03/08 12:35:22;;;;;;;16.10;13.57;;;;;;;;;;6246370;23;20157;-91
2024/03/08 12:37:52;;;;;;;16.50;14.10;;;;;;;;;;6245916;22;20548;-89
2024/03/08 12:40:21;;;;;;;14.45;12.93;;;;;;;;;;6245940;23;20193;-90
2024/03/08 12:42:49;;;;;;;16.48;13.45;;;;;;;;;;6245935;22;20171;-90
2024/03/08 12:45:18;;;;;;;15.60;13.52;;;;;;;;;;6245859;23;20189;-90
2024/03/08 12:47:45;;;;;;;14.82;12.75;;;;;;;;;;6245427;22;20183;-89
2024/03/08 12:50:13;;;;;;;15.25;13.48;;;;;;;;;;6245680;22;20596;-90
2024/03/08 12:52:41;;;;;;;15.57;13.00;;;;;;;;;;6245948;23;20593;-91
2024/03/08 12:55:09;;;;;;;15.10;13.52;;;;;;;;;;6246205;22;20169;-91
2024/03/08 12:57:37;;;;;;;16.65;14.13;;;;;;;;;;6245870;22;20172;-89
2024/03/08 13:00:12;;;;;;;15.95;13.95;;;;;;;;;;6246010;22;20193;-90
2024/03/08 13:02:42;;;;;;;17.98;13.50;;;;;;;;;;6245791;23;20203;-90
2024/03/08 13:05:10;;;;;;;15.70;13.15;;;;;;;;;;6245632;22;20466;-91
2024/03/08 13:07:38;;;;;;;14.90;13.32;;;;;;;;;;6245254;22;20197;-91
2024/03/08 13:10:08;;;;;;;14.65;13.00;;;;;;;;;;6245539;22;20219;-91
2024/03/08 13:12:37;;;;;;;19.60;14.93;;;;;;;;;;6245700;23;20557;-90
2024/03/08 13:15:06;;;;;;;17.58;15.15;;;;;;;;;;6245753;23;20660;-90
2024/03/08 13:17:33;;;;;;;17.23;15.40;;;;;;;;;;6245817;23;20502;-90
2024/03/08 13:20:05;;;;;;;14.65;13.05;;;;;;;;;;6245582;23;20192;-91
2024/03/08 13:22:32;;;;;;;15.68;13.18;;;;;;;;;;6246006;23;20168;-89
2024/03/08 13:25:00;;;;;;;16.52;13.82;;;;;;;;;;6245668;23;20272;-90
2024/03/08 13:27:28;;;;;;;16.42;14.23;;;;;;;;;;6245276;23;20244;-90
2024/03/08 13:29:56;;;;;;;16.10;13.57;;;;;;;;;;6245604;23;20193;-90
2024/03/08 13:32:24;;;;;;;14.48;12.93;;;;;;;;;;6245661;22;20244;-90
2024/03/08 13:34:53;;;;;;;19.73;13.68;;;;;;;;;;6245418;22;20578;-91
2024/03/08 13:37:22;;;;;;;15.40;13.45;;;;;;;;;;6245171;22;20170;-90
2024/03/08 13:39:50;;;;;;;16.17;13.00;;;;;;;;;;6245156;22;20695;-91
2024/03/08 13:42:18;;;;;;;15.57;13.65;;;;;;;;;;6249263;22;20163;-91
2024/03/08 13:44:46;;;;;;;15.35;12.20;;;;;;;;;;6250063;22;20298;-90
2024/03/08 13:47:15;;;;;;;15.07;13.48;;;;;;;;;;6244966;22;20173;-90
2024/03/08 13:49:43;;;;;;;16.98;13.65;;;;;;;;;;6245476;22;20271;-90
2024/03/08 13:52:12;;;;;;;14.15;11.20;;;;;;;;;;6245418;22;20177;-91
2024/03/08 13:54:43;;;;;;;15.70;12.25;;;;;;;;;;6245274;23;20251;-90
2024/03/08 13:57:11;;;;;;;13.73;12.32;;;;;;;;;;6244950;23;20239;-90
2024/03/08 13:59:39;;;;;;;16.52;12.43;;;;;;;;;;6245387;23;20587;-89
2024/03/08 14:02:10;;;;;;;15.15;13.52;;;;;;;;;;6245186;22;20179;-90
2024/03/08 14:04:38;;;;;;;15.82;12.25;;;;;;;;;;6245188;23;20208;-90
2024/03/08 14:07:08;;;;;;;16.38;12.32;;;;;;;;;;6244533;23;20165;-92
2024/03/08 14:09:37;;;;;;;14.95;12.18;;;;;;;;;;6245257;23;20157;-91
2024/03/08 14:12:07;;;;;;;12.65;11.15;;;;;;;;;;6245271;22;20169;-90
2024/03/08 14:14:35;;;;;;;16.17;12.20;;;;;;;;;;6245169;22;20199;-91
2024/03/08 14:17:03;;;;;;;14.40;12.50;;;;;;;;;;6244918;22;20180;-90
2024/03/08 14:19:31;;;;;;;16.38;13.38;;;;;;;;;;6245596;22;20169;-90
2024/03/08 14:21:59;;;;;;;17.63;14.68;;;;;;;;;;6267102;22;20220;-90
2024/03/08 14:24:27;;;;;;;16.80;13.65;;;;;;;;;;6246158;22;20741;-90
2024/03/08 14:26:55;;;;;;;15.75;13.35;;;;;;;;;;6245479;23;20172;-91
2024/03/08 14:29:25;;;;;;;14.55;12.77;;;;;;;;;;6253093;23;20185;-90
2024/03/08 14:31:53;;;;;;;17.42;14.05;;;;;;;;;;6271159;22;20160;-89
2024/03/08 14:34:20;;;;;;;19.23;12.85;;;;;;;;;;6273708;22;20165;-90
2024/03/08 14:36:48;;;;;;;14.65;12.77;;;;;;;;;;6273611;22;20161;-89
2024/03/08 14:39:21;;;;;;;15.57;12.70;;;;;;;;;;6274137;22;20161;-90
2024/03/08 14:41:49;;;;;;;16.60;13.40;;;;;;;;;;6273665;22;20161;-89
2024/03/08 14:44:19;;;;;;;16.48;13.77;;;;;;;;;;6247856;23;20664;-89
2024/03/08 14:46:48;;;;;;;14.90;13.07;;;;;;;;;;6246335;22;20239;-90
2024/03/08 14:49:15;;;;;;;18.05;13.13;;;;;;;;;;6245979;22;20571;-90
2024/03/08 14:51:43;;;;;;;16.52;13.70;;;;;;;;;;6267603;22;20260;-90
2024/03/08 14:54:12;;;;;;;16.60;14.10;;;;;;;;;;6289587;22;20203;-91
2024/03/08 14:56:41;;;;;;;16.17;13.93;;;;;;;;;;6287352;22;20169;-93
2024/03/08 14:59:09;;;;;;;15.55;13.13;;;;;;;;;;6290394;22;20225;-91
2024/03/08 15:01:36;;;;;;;16.95;13.43;;;;;;;;;;6290266;22;20203;-91
2024/03/08 15:04:10;;;;;;;17.77;14.55;;;;;;;;;;6289297;22;20224;-89
2024/03/08 15:06:37;;;;;;;16.52;14.77;;;;;;;;;;6303223;22;20196;-91
2024/03/08 15:09:11;;;;;;;16.83;14.98;;;;;;;;;;6287518;22;20525;-91
2024/03/08 15:11:39;;;;;;;17.70;13.35;;;;;;;;;;6283222;22;20195;-91
2024/03/08 15:14:10;;;;;;;16.98;14.23;;;;;;;;;;6288986;22;20179;-91
2024/03/08 15:16:39;;;;;;;15.27;11.95;;;;;;;;;;6294529;22;20445;-91
2024/03/08 15:19:08;;;;;;;15.07;12.77;;;;;;;;;;6303731;22;20211;-90
2024/03/08 15:21:36;;;;;;;21.45;13.63;;;;;;;;;;6303098;22;20227;-91
2024/03/08 15:24:04;;;;;;;16.95;13.48;;;;;;;;;;6297971;22;20231;-90
2024/03/08 15:26:32;;;;;;;19.77;14.43;;;;;;;;;;6300036;22;20196;-91
2024/03/08 15:29:00;;;;;;;14.48;12.55;;;;;;;;;;6294138;22;20168;-92
2024/03/08 15:31:27;;;;;;;18.50;15.13;;;;;;;;;;6298280;22;20200;-90
2024/03/08 15:34:00;;;;;;;19.80;13.85;;;;;;;;;;6298449;22;20183;-91
2024/03/08 15:36:30;;;;;;;19.00;15.00;;;;;;;;;;6297968;22;20199;-91
2024/03/08 15:38:59;;;;;;;17.55;12.68;;;;;;;;;;6298673;22;20172;-92
2024/03/08 15:41:27;;;;;;;17.95;13.00;;;;;;;;;;6289746;22;20198;-91
2024/03/08 15:43:56;;;;;;;14.45;12.38;;;;;;;;;;6289711;22;20168;-91
2024/03/08 15:46:24;;;;;;;15.43;13.43;;;;;;;;;;6285578;22;20193;-91
2024/03/08 15:48:52;;;;;;;16.08;13.63;;;;;;;;;;6292317;22;20238;-92
2024/03/08 15:51:20;;;;;;;17.17;13.20;;;;;;;;;;6293331;22;20196;-91
2024/03/08 15:53:53;;;;;;;18.02;13.40;;;;;;;;;;6292129;22;20192;-91
2024/03/08 15:56:21;;;;;;;17.88;13.68;;;;;;;;;;6292432;22;20623;-90
2024/03/08 15:58:48;;;;;;;16.95;13.68;;;;;;;;;;6303310;22;20176;-90
2024/03/08 16:01:17;;;;;;;16.67;11.95;;;;;;;;;;6303846;22;20232;-89
2024/03/08 16:03:48;;;;;;;16.80;13.85;;;;;;;;;;6305420;22;20161;-91
2024/03/08 16:06:15;;;;;;;15.55;12.10;;;;;;;;;;6305747;22;20235;-90
2024/03/08 16:08:43;;;;;;;17.73;13.43;;;;;;;;;;6305324;22;20176;-90
2024/03/08 16:11:12;;;;;;;15.35;13.15;;;;;;;;;;6305507;22;20177;-90
2024/03/08 16:13:40;;;;;;;16.33;12.82;;;;;;;;;;6305609;22;20183;-90
2024/03/08 16:16:07;;;;;;;14.05;12.13;;;;;;;;;;6305645;22;20148;-90
2024/03/08 16:18:37;;;;;;;16.33;13.70;;;;;;;;;;6305207;22;20440;-89
2024/03/08 16:21:06;;;;;;;15.32;12.60;;;;;;;;;;6304765;22;20184;-90
2024/03/08 16:23:35;;;;;;;18.67;14.60;;;;;;;;;;6303922;22;20220;-91
2024/03/08 16:26:06;;;;;;;14.95;13.32;;;;;;;;;;6300394;22;20230;-92
2024/03/08 16:28:39;;;;;;;17.10;13.90;;;;;;;;;;6296496;22;20152;-92
2024/03/08 16:31:08;;;;;;;16.05;14.15;;;;;;;;;;6303145;22;20569;-92
2024/03/08 16:33:35;;;;;;;17.88;14.13;;;;;;;;;;6295897;22;20175;-91
2024/03/08 16:36:03;;;;;;;15.10;13.43;;;;;;;;;;6301591;22;20212;-90
2024/03/08 16:38:31;;;;;;;17.38;14.13;;;;;;;;;;6303003;22;20225;-89
2024/03/08 16:41:00;;;;;;;14.65;13.10;;;;;;;;;;6304451;22;20197;-92
2024/03/08 16:43:28;;;;;;;13.85;12.30;;;;;;;;;;6302066;22;20160;-91
2024/03/08 16:45:58;;;;;;;14.32;12.77;;;;;;;;;;6302133;22;20176;-91